createdAt,value
2019-01-24T00:01:06.581Z,69.89
2019-01-24T00:03:36.556Z,69.89
2019-01-24T00:06:06.642Z,69.94
2019-01-24T00:08:36.983Z,70.82
2019-01-24T00:11:07.021Z,69.20
2019-01-24T00:13:37.089Z,69.84
2019-01-24T00:16:07.270Z,70.09
2019-01-24T00:18:37.275Z,69.17
2019-01-24T00:21:07.302Z,69.44
2019-01-24T00:23:37.308Z,68.80
2019-01-24T00:26:07.350Z,69.05
2019-01-24T00:28:37.265Z,70.12
2019-01-24T00:31:07.304Z,67.06
2019-01-24T00:33:37.294Z,67.40
2019-01-24T00:36:08.410Z,66.25
2019-01-24T00:38:38.393Z,67.30
2019-01-24T00:41:08.371Z,67.46
2019-01-24T00:43:38.329Z,68.89
2019-01-24T00:46:08.418Z,69.87
2019-01-24T00:48:38.333Z,68.74
2019-01-24T00:51:08.325Z,69.09
2019-01-24T00:53:38.274Z,68.67
2019-01-24T00:56:08.330Z,69.32
2019-01-24T00:58:38.309Z,68.66
2019-01-24T01:01:08.344Z,69.37
2019-01-24T01:03:38.365Z,68.21
2019-01-24T01:06:08.495Z,66.41
2019-01-24T01:08:38.434Z,67.49
2019-01-24T01:11:08.506Z,66.63
2019-01-24T01:13:38.463Z,66.19
2019-01-24T01:16:08.377Z,66.63
2019-01-24T01:18:38.359Z,66.88
2019-01-24T01:21:08.369Z,67.69
2019-01-24T01:23:38.314Z,68.28
2019-01-24T01:26:08.337Z,67.21
2019-01-24T01:28:38.245Z,67.09
2019-01-24T01:31:08.294Z,68.02
2019-01-24T01:33:38.231Z,68.71
2019-01-24T01:36:08.276Z,68.60
2019-01-24T01:38:38.268Z,68.29
2019-01-24T01:41:08.293Z,67.50
2019-01-24T01:43:38.297Z,67.57
2019-01-24T01:46:08.255Z,67.22
2019-01-24T01:48:39.191Z,68.40
2019-01-24T01:51:09.206Z,67.05
2019-01-24T01:53:39.058Z,66.79
2019-01-24T01:56:09.102Z,67.59
2019-01-24T01:58:39.041Z,66.65
2019-01-24T02:01:09.186Z,66.76
2019-01-24T02:03:39.213Z,66.84
2019-01-24T02:06:09.100Z,65.94
2019-01-24T02:08:39.058Z,66.46
2019-01-24T02:11:09.309Z,66.05
2019-01-24T02:13:39.272Z,66.54
2019-01-24T02:16:09.258Z,67.46
2019-01-24T02:18:39.278Z,67.13
2019-01-24T02:21:09.282Z,66.82
2019-01-24T02:23:39.163Z,67.48
2019-01-24T02:26:09.155Z,67.81
2019-01-24T02:28:39.059Z,66.54
2019-01-24T02:31:09.060Z,66.87
2019-01-24T02:33:39.010Z,67.09
2019-01-24T02:36:09.036Z,67.67
2019-01-24T02:38:38.948Z,67.19
2019-01-24T02:41:08.871Z,67.58
2019-01-24T02:43:38.718Z,66.79
2019-01-24T02:46:08.744Z,66.29
2019-01-24T02:48:38.586Z,66.29
2019-01-24T02:51:08.529Z,66.65
2019-01-24T02:53:38.404Z,66.73
2019-01-24T02:56:08.417Z,68.56
2019-01-24T02:58:38.412Z,69.72
2019-01-24T03:01:08.375Z,67.63
2019-01-24T03:03:38.304Z,68.44
2019-01-24T03:06:08.351Z,67.95
2019-01-24T03:08:38.382Z,67.64
2019-01-24T03:11:08.360Z,66.18
2019-01-24T03:13:38.400Z,66.32
2019-01-24T03:16:08.337Z,67.33
2019-01-24T03:18:38.425Z,66.33
2019-01-24T03:21:08.445Z,66.55
2019-01-24T03:23:38.394Z,66.32
2019-01-24T03:26:08.355Z,66.65
2019-01-24T03:28:38.262Z,66.68
2019-01-24T03:31:08.176Z,66.29
2019-01-24T03:33:38.211Z,67.07
2019-01-24T03:36:08.206Z,66.82
2019-01-24T03:38:38.076Z,67.67
2019-01-24T03:41:08.010Z,64.89
2019-01-24T03:43:41.031Z,66.20
2019-01-24T03:46:11.028Z,65.81
2019-01-24T03:48:41.073Z,66.02
2019-01-24T03:51:11.108Z,65.96
2019-01-24T03:53:41.107Z,66.21
2019-01-24T03:56:11.159Z,66.81
2019-01-24T03:58:41.202Z,66.92
2019-01-24T04:01:11.244Z,66.94
2019-01-24T04:03:41.413Z,66.78
2019-01-24T04:06:11.437Z,66.90
2019-01-24T04:08:41.432Z,67.42
2019-01-24T04:11:12.388Z,68.05
2019-01-24T04:13:42.328Z,68.93
2019-01-24T04:16:12.403Z,68.47
2019-01-24T04:18:42.421Z,67.88
2019-01-24T04:21:12.447Z,67.43
2019-01-24T04:23:42.470Z,66.86
2019-01-24T04:26:12.524Z,67.02
2019-01-24T04:28:42.422Z,67.73
2019-01-24T04:31:12.388Z,68.11
2019-01-24T04:33:42.401Z,67.68
2019-01-24T04:36:12.244Z,66.92
2019-01-24T04:38:42.220Z,66.61
2019-01-24T04:41:12.152Z,67.29
2019-01-24T04:43:42.096Z,67.23
2019-01-24T04:46:11.936Z,66.30
2019-01-24T04:48:42.069Z,67.62
2019-01-24T04:51:12.049Z,67.54
2019-01-24T04:53:41.959Z,67.84
2019-01-24T04:56:11.900Z,67.95
2019-01-24T04:58:41.794Z,67.16
2019-01-24T05:01:11.709Z,67.67
2019-01-24T05:03:41.619Z,68.65
2019-01-24T05:06:11.615Z,69.06
2019-01-24T05:08:41.478Z,68.45
2019-01-24T05:11:11.560Z,68.92
2019-01-24T05:13:41.559Z,68.66
2019-01-24T05:16:11.542Z,68.82
2019-01-24T05:18:41.453Z,69.12
2019-01-24T05:21:11.354Z,70.77
2019-01-24T05:23:41.299Z,71.98
2019-01-24T05:26:11.298Z,71.60
2019-01-24T05:28:41.330Z,71.92
2019-01-24T05:31:11.321Z,71.99
2019-01-24T05:33:41.332Z,72.88
2019-01-24T05:36:11.277Z,72.91
2019-01-24T05:38:41.230Z,72.95
2019-01-24T05:41:11.240Z,73.24
2019-01-24T05:43:41.178Z,73.98
2019-01-24T05:46:11.199Z,73.16
2019-01-24T05:48:41.242Z,73.58
2019-01-24T05:51:11.188Z,73.72
2019-01-24T05:53:41.077Z,73.88
2019-01-24T05:56:11.005Z,73.41
2019-01-24T05:58:40.878Z,72.62
2019-01-24T06:01:11.340Z,71.37
2019-01-24T06:03:41.190Z,72.15
2019-01-24T06:06:11.250Z,71.63
2019-01-24T06:08:41.211Z,71.07
2019-01-24T06:11:11.158Z,71.25
2019-01-24T06:13:41.016Z,71.09
2019-01-24T06:16:11.004Z,71.35
2019-01-24T06:18:40.921Z,72.38
2019-01-24T06:21:10.891Z,72.21
2019-01-24T06:23:40.962Z,70.89
2019-01-24T06:26:10.794Z,71.24
2019-01-24T06:28:40.825Z,71.78
2019-01-24T06:31:10.736Z,71.49
2019-01-24T06:33:40.738Z,72.15
2019-01-24T06:36:10.659Z,72.56
2019-01-24T06:38:40.576Z,72.64
2019-01-24T06:41:10.518Z,72.11
2019-01-24T06:43:40.530Z,72.48
2019-01-24T06:46:10.577Z,73.40
2019-01-24T06:48:40.485Z,73.44
2019-01-24T06:51:10.566Z,73.50
2019-01-24T06:53:40.558Z,73.35
2019-01-24T06:56:10.716Z,73.18
2019-01-24T06:58:40.693Z,73.69
2019-01-24T07:01:10.781Z,73.26
2019-01-24T07:03:40.710Z,74.00
2019-01-24T07:06:10.778Z,73.73
2019-01-24T07:08:40.841Z,73.71
2019-01-24T07:11:10.752Z,73.58
2019-01-24T07:13:41.125Z,72.79
2019-01-24T07:16:11.117Z,72.11
2019-01-24T07:18:41.014Z,71.62
2019-01-24T07:21:10.927Z,71.46
2019-01-24T07:23:40.971Z,72.62
2019-01-24T07:26:10.888Z,72.23
2019-01-24T07:28:41.015Z,72.40
2019-01-24T07:31:10.962Z,72.89
2019-01-24T07:33:40.912Z,74.64
2019-01-24T07:36:11.999Z,73.05
2019-01-24T07:38:42.117Z,72.92
2019-01-24T07:41:12.050Z,72.10
2019-01-24T07:43:41.990Z,71.68
2019-01-24T07:46:11.995Z,72.99
2019-01-24T07:48:42.025Z,71.72
2019-01-24T07:51:11.987Z,71.47
2019-01-24T07:53:42.003Z,72.04
2019-01-24T07:56:12.094Z,72.22
2019-01-24T07:58:42.094Z,71.79
2019-01-24T08:01:12.195Z,72.20
2019-01-24T08:03:42.122Z,72.12
2019-01-24T08:06:12.235Z,71.58
2019-01-24T08:08:42.266Z,72.24
2019-01-24T08:11:12.343Z,72.04
2019-01-24T08:13:42.411Z,71.66
2019-01-24T08:16:12.426Z,72.13
2019-01-24T08:18:42.471Z,71.27
2019-01-24T08:21:12.508Z,71.29
2019-01-24T08:23:42.576Z,71.40
2019-01-24T08:26:12.634Z,71.03
2019-01-24T08:28:42.638Z,71.26
2019-01-24T08:31:12.598Z,71.05
2019-01-24T08:33:42.535Z,70.25
2019-01-24T08:36:15.728Z,69.67
2019-01-24T08:38:44.487Z,70.06
2019-01-24T08:41:16.036Z,69.81
2019-01-24T08:43:46.091Z,70.61
2019-01-24T08:46:16.124Z,69.51
2019-01-24T08:48:46.031Z,68.89
2019-01-24T08:51:16.073Z,69.07
2019-01-24T08:53:46.093Z,68.46
2019-01-24T08:56:16.167Z,67.91
2019-01-24T08:58:46.128Z,66.40
2019-01-24T09:01:16.391Z,66.01
2019-01-24T09:03:46.386Z,66.31
2019-01-24T09:06:22.381Z,66.06
2019-01-24T09:08:48.088Z,63.22
2019-01-24T09:11:18.100Z,55.27
2019-01-24T09:13:48.039Z,55.51
2019-01-24T09:16:18.003Z,56.73
2019-01-24T09:18:47.972Z,55.92
2019-01-24T09:21:17.942Z,57.20
2019-01-24T09:23:47.932Z,61.80
2019-01-24T09:26:17.956Z,63.16
2019-01-24T09:28:47.915Z,64.79
2019-01-24T09:31:17.767Z,65.91
2019-01-24T09:33:47.689Z,66.98
2019-01-24T09:36:17.686Z,67.78
2019-01-24T09:38:47.634Z,66.92
2019-01-24T09:41:17.550Z,66.84
2019-01-24T09:43:47.500Z,66.80
2019-01-24T09:46:17.414Z,66.49
2019-01-24T09:48:47.319Z,65.91
2019-01-24T09:51:17.246Z,65.58
2019-01-24T09:53:47.270Z,65.25
2019-01-24T09:56:17.170Z,65.11
2019-01-24T09:58:47.153Z,63.28
2019-01-24T10:01:17.128Z,62.91
2019-01-24T10:03:47.131Z,62.38
2019-01-24T10:06:17.179Z,62.07
2019-01-24T10:08:47.176Z,62.54
2019-01-24T10:11:23.277Z,62.38
2019-01-24T10:13:48.928Z,62.52
2019-01-24T10:16:18.904Z,63.57
2019-01-24T10:18:48.827Z,64.51
2019-01-24T10:21:18.792Z,63.53
2019-01-24T10:23:48.752Z,63.55
2019-01-24T10:26:18.684Z,62.69
2019-01-24T10:28:48.662Z,62.42
2019-01-24T10:31:18.660Z,63.34
2019-01-24T10:33:48.538Z,61.70
2019-01-24T10:36:18.551Z,60.71
2019-01-24T10:38:48.585Z,60.81
2019-01-24T10:41:18.502Z,60.74
2019-01-24T10:43:48.474Z,60.50
2019-01-24T10:46:18.514Z,61.75
2019-01-24T10:48:48.654Z,62.08
2019-01-24T10:51:18.749Z,62.67
2019-01-24T10:53:48.620Z,61.69
2019-01-24T10:56:18.634Z,62.05
2019-01-24T10:58:48.717Z,60.89
2019-01-24T11:01:18.837Z,60.84
2019-01-24T11:03:48.836Z,60.53
2019-01-24T11:06:18.777Z,60.45
2019-01-24T11:08:48.752Z,60.96
2019-01-24T11:11:18.756Z,59.54
2019-01-24T11:13:49.236Z,59.07
2019-01-24T11:16:19.217Z,57.85
2019-01-24T11:18:49.207Z,58.72
2019-01-24T11:21:19.242Z,59.14
2019-01-24T11:23:49.288Z,59.89
2019-01-24T11:26:19.203Z,60.42
2019-01-24T11:28:49.339Z,60.53
2019-01-24T11:31:19.245Z,61.10
2019-01-24T11:33:49.254Z,61.22
2019-01-24T11:36:19.233Z,61.44
2019-01-24T11:38:49.193Z,60.77
2019-01-24T11:41:19.189Z,60.36
2019-01-24T11:43:49.140Z,60.39
2019-01-24T11:46:19.046Z,60.00
2019-01-24T11:48:49.130Z,60.16
2019-01-24T11:51:19.195Z,60.01
2019-01-24T11:53:53.046Z,60.11
2019-01-24T11:56:20.870Z,60.67
2019-01-24T11:58:50.921Z,59.44
2019-01-24T12:01:20.945Z,59.57
2019-01-24T12:03:50.920Z,58.80
2019-01-24T12:06:20.955Z,58.71
2019-01-24T12:08:50.857Z,59.07
2019-01-24T12:11:20.891Z,58.40
2019-01-24T12:13:51.056Z,57.87
2019-01-24T12:16:21.241Z,56.90
2019-01-24T12:18:51.157Z,56.04
2019-01-24T12:21:21.285Z,56.94
2019-01-24T12:23:51.209Z,57.06
2019-01-24T12:26:21.148Z,56.85
2019-01-24T12:28:51.112Z,55.76
2019-01-24T12:31:21.093Z,56.05
2019-01-24T12:33:51.117Z,56.52
2019-01-24T12:36:20.982Z,56.44
2019-01-24T12:38:50.948Z,56.89
2019-01-24T12:41:20.857Z,57.73
2019-01-24T12:43:52.313Z,57.15
2019-01-24T12:46:22.300Z,57.08
2019-01-24T12:48:52.311Z,56.72
2019-01-24T12:51:22.343Z,56.32
2019-01-24T12:53:53.946Z,56.17
2019-01-24T12:56:23.857Z,56.79
2019-01-24T13:01:29.995Z,55.86
2019-01-24T13:04:00.057Z,56.44
2019-01-24T13:06:29.979Z,55.75
2019-01-24T13:08:59.930Z,54.87
2019-01-24T13:11:29.878Z,55.11
2019-01-24T13:14:00.962Z,54.72
2019-01-24T13:16:31.065Z,55.15
2019-01-24T13:19:01.215Z,54.70
2019-01-24T13:21:31.178Z,54.54
2019-01-24T13:24:01.206Z,54.67
2019-01-24T13:26:31.137Z,55.36
2019-01-24T13:29:01.038Z,55.04
2019-01-24T13:31:30.991Z,55.37
2019-01-24T13:34:00.913Z,55.28
2019-01-24T13:36:30.886Z,55.51
2019-01-24T13:39:00.782Z,56.25
2019-01-24T13:41:31.933Z,56.94
2019-01-24T13:44:01.952Z,56.70
2019-01-24T13:46:31.837Z,57.03
2019-01-24T13:49:01.686Z,57.69
2019-01-24T13:51:31.871Z,57.19
2019-01-24T13:54:01.784Z,57.17
2019-01-24T13:56:31.845Z,57.30
2019-01-24T13:59:01.750Z,57.97
2019-01-24T14:01:31.715Z,57.72
2019-01-24T14:04:14.200Z,57.14
2019-01-24T14:06:44.114Z,57.39
2019-01-24T14:09:14.049Z,57.32
2019-01-24T14:11:44.745Z,57.35
2019-01-24T14:14:14.716Z,56.88
2019-01-24T14:16:44.860Z,57.21
2019-01-24T14:19:15.025Z,56.88
2019-01-24T14:21:45.006Z,56.13
2019-01-24T14:24:14.965Z,57.04
2019-01-24T14:26:45.953Z,56.74
2019-01-24T14:29:16.182Z,56.85
2019-01-24T14:31:46.167Z,57.40
2019-01-24T14:34:16.188Z,57.08
2019-01-24T14:36:46.267Z,58.11
2019-01-24T14:39:16.283Z,59.02
2019-01-24T14:41:46.156Z,59.48
2019-01-24T14:44:16.267Z,59.18
2019-01-24T14:46:46.146Z,59.53
2019-01-24T14:49:16.123Z,59.69
2019-01-24T14:51:46.076Z,60.26
2019-01-24T14:54:15.925Z,60.67
2019-01-24T14:56:46.948Z,60.18
2019-01-24T14:59:16.821Z,60.19
2019-01-24T15:01:46.849Z,61.97
2019-01-24T15:04:18.111Z,62.54
2019-01-24T15:06:48.064Z,59.73
2019-01-24T15:09:18.083Z,60.45
2019-01-24T15:11:48.160Z,61.45
2019-01-24T15:14:19.502Z,60.44
2019-01-24T15:16:49.382Z,61.50
2019-01-24T15:19:19.290Z,61.65
2019-01-24T15:21:49.344Z,61.81
2019-01-24T15:24:19.374Z,62.55
2019-01-24T15:26:49.282Z,62.90
2019-01-24T15:29:19.231Z,63.80
2019-01-24T15:31:49.158Z,63.88
2019-01-24T15:34:19.128Z,63.61
2019-01-24T15:36:49.046Z,63.32
2019-01-24T15:39:19.021Z,63.85
2019-01-24T15:41:48.967Z,63.96
2019-01-24T15:44:18.895Z,64.07
2019-01-24T15:46:50.115Z,64.26
2019-01-24T15:49:20.265Z,64.41
2019-01-24T15:51:50.175Z,64.33
2019-01-24T15:54:20.210Z,64.82
2019-01-24T15:56:50.108Z,64.61
2019-01-24T15:59:20.188Z,65.39
2019-01-24T16:01:50.170Z,65.76
2019-01-24T16:04:20.148Z,65.53
2019-01-24T16:06:50.238Z,66.38
2019-01-24T16:09:20.141Z,67.15
2019-01-24T16:11:50.178Z,67.62
2019-01-24T16:14:20.219Z,67.81
2019-01-24T16:16:50.282Z,68.67
2019-01-24T16:19:20.265Z,68.30
2019-01-24T16:21:50.210Z,68.77
2019-01-24T16:24:20.204Z,69.38
2019-01-24T16:26:50.142Z,69.76
2019-01-24T16:29:20.089Z,70.60
2019-01-24T16:31:50.065Z,71.92
2019-01-24T16:34:20.078Z,74.63
2019-01-24T16:36:49.984Z,75.48
2019-01-24T16:39:19.916Z,77.05
2019-01-24T16:41:49.871Z,78.92
2019-01-24T16:44:19.735Z,80.14
2019-01-24T16:46:49.630Z,80.96
2019-01-24T16:49:19.558Z,81.56
2019-01-24T16:51:49.557Z,81.72
2019-01-24T16:54:19.475Z,81.91
2019-01-24T16:56:49.462Z,82.14
2019-01-24T16:59:20.483Z,82.05
2019-01-24T17:01:50.462Z,81.17
2019-01-24T17:04:20.466Z,80.49
2019-01-24T17:06:50.359Z,81.05
2019-01-24T17:09:20.336Z,81.51
2019-01-24T17:11:50.315Z,81.35
2019-01-24T17:14:22.411Z,81.41
2019-01-24T17:16:52.200Z,81.26
2019-01-24T17:19:22.144Z,81.33
2019-01-24T17:21:52.591Z,81.83
2019-01-24T17:24:22.672Z,82.29
2019-01-24T17:26:52.572Z,82.75
2019-01-24T17:29:22.606Z,82.96
2019-01-24T17:31:52.525Z,83.05
2019-01-24T17:34:22.468Z,82.89
2019-01-24T17:36:52.462Z,82.90
2019-01-24T17:39:22.356Z,83.13
2019-01-24T17:41:52.327Z,83.04
2019-01-24T17:44:22.356Z,83.04
2019-01-24T17:46:52.293Z,83.04
2019-01-24T17:49:22.339Z,83.21
2019-01-24T17:51:52.274Z,83.14
2019-01-24T17:54:22.320Z,83.40
2019-01-24T17:56:52.185Z,83.08
2019-01-24T17:59:22.201Z,83.06
2019-01-24T18:01:52.221Z,83.26
2019-01-24T18:04:22.266Z,83.20
2019-01-24T18:06:52.270Z,83.15
2019-01-24T18:09:22.357Z,83.04
2019-01-24T18:11:52.280Z,82.40
2019-01-24T18:14:22.317Z,81.85
2019-01-24T18:16:52.597Z,81.79
2019-01-24T18:19:22.696Z,81.49
2019-01-24T18:21:52.750Z,80.91
2019-01-24T18:24:22.687Z,81.57
2019-01-24T18:26:52.655Z,81.87
2019-01-24T18:29:22.662Z,81.67
2019-01-24T18:31:52.676Z,81.93
2019-01-24T18:34:22.656Z,82.41
2019-01-24T18:36:52.708Z,82.59
2019-01-24T18:39:22.637Z,82.78
2019-01-24T18:41:52.602Z,82.76
2019-01-24T18:44:22.595Z,82.87
2019-01-24T18:46:52.742Z,82.81
2019-01-24T18:49:22.755Z,82.67
2019-01-24T18:51:52.818Z,82.79
2019-01-24T18:54:22.706Z,82.82
2019-01-24T18:56:52.636Z,82.62
2019-01-24T18:59:22.668Z,82.32
2019-01-24T19:01:52.592Z,82.04
2019-01-24T19:04:22.831Z,81.98
2019-01-24T19:06:53.187Z,81.93
2019-01-24T19:09:23.411Z,81.72
2019-01-24T19:11:53.466Z,81.59
2019-01-24T19:14:23.702Z,81.32
2019-01-24T19:16:53.756Z,81.20
2019-01-24T19:19:23.806Z,81.31
2019-01-24T19:21:53.736Z,81.28
2019-01-24T19:24:23.768Z,81.47
2019-01-24T19:26:53.938Z,81.62
2019-01-24T19:29:25.096Z,81.48
2019-01-24T19:31:55.206Z,81.10
2019-01-24T19:34:25.242Z,81.17
2019-01-24T19:36:55.322Z,81.10
2019-01-24T19:39:25.270Z,80.54
2019-01-24T19:41:55.351Z,79.76
2019-01-24T19:44:25.280Z,79.79
2019-01-24T19:46:55.182Z,80.05
2019-01-24T19:49:25.142Z,79.93
2019-01-24T19:51:55.178Z,79.99
2019-01-24T19:54:25.221Z,80.02
2019-01-24T19:56:56.252Z,80.04
2019-01-24T19:59:26.202Z,79.87
2019-01-24T20:01:56.307Z,80.23
2019-01-24T20:04:26.361Z,80.36
2019-01-24T20:06:56.395Z,80.47
2019-01-24T20:09:26.447Z,80.41
2019-01-24T20:11:56.686Z,80.33
2019-01-24T20:14:26.632Z,80.44
2019-01-24T20:16:56.680Z,80.34
2019-01-24T20:19:26.759Z,79.85
2019-01-24T20:21:56.760Z,79.80
2019-01-24T20:24:26.732Z,79.73
2019-01-24T20:26:56.743Z,79.77
2019-01-24T20:29:26.704Z,79.52
2019-01-24T20:31:56.771Z,79.63
2019-01-24T20:34:26.781Z,79.62
2019-01-24T20:36:56.709Z,79.30
2019-01-24T20:39:26.747Z,78.13
2019-01-24T20:41:56.790Z,78.25
2019-01-24T20:44:26.795Z,78.30
2019-01-24T20:46:56.751Z,78.54
2019-01-24T20:49:26.730Z,78.59
2019-01-24T20:51:56.793Z,79.02
2019-01-24T20:54:26.776Z,78.93
2019-01-24T20:56:56.663Z,79.09
2019-01-24T20:59:26.593Z,78.69
2019-01-24T21:01:56.584Z,78.85
2019-01-24T21:04:26.501Z,78.69
2019-01-24T21:06:56.500Z,78.16
2019-01-24T21:09:26.414Z,78.49
2019-01-24T21:11:56.470Z,78.71
2019-01-24T21:14:26.658Z,78.32
2019-01-24T21:16:56.651Z,78.16
2019-01-24T21:19:26.697Z,78.16
2019-01-24T21:21:56.706Z,77.95
2019-01-24T21:24:26.672Z,77.91
2019-01-24T21:26:56.509Z,77.56
2019-01-24T21:29:26.586Z,77.60
2019-01-24T21:31:56.450Z,77.42
2019-01-24T21:34:26.512Z,77.14
2019-01-24T21:36:56.591Z,77.04
2019-01-24T21:39:26.709Z,77.30
2019-01-24T21:41:56.654Z,77.49
2019-01-24T21:44:26.725Z,77.92
2019-01-24T21:46:56.670Z,78.06
2019-01-24T21:49:26.716Z,78.38
2019-01-24T21:51:56.670Z,77.86
2019-01-24T21:54:26.679Z,77.82
2019-01-24T21:56:56.746Z,77.99
2019-01-24T21:59:26.661Z,77.71
2019-01-24T22:01:56.607Z,77.53
2019-01-24T22:04:26.611Z,77.42
2019-01-24T22:06:56.610Z,77.44
2019-01-24T22:09:29.231Z,77.41
2019-01-24T22:11:58.214Z,77.32
2019-01-24T22:14:28.128Z,77.00
2019-01-24T22:17:00.846Z,77.30
2019-01-24T22:19:30.865Z,77.71
2019-01-24T22:22:04.278Z,77.58
2019-01-24T22:24:34.131Z,77.08
2019-01-24T22:27:04.390Z,76.92
2019-01-24T22:29:34.364Z,76.97
2019-01-24T22:32:04.592Z,77.01
2019-01-24T22:34:34.558Z,77.47
2019-01-24T22:37:04.568Z,76.97
2019-01-24T22:39:36.734Z,77.30
2019-01-24T22:42:06.434Z,76.96
2019-01-24T22:44:36.328Z,77.28
2019-01-24T22:47:06.308Z,77.71
2019-01-24T22:49:36.281Z,78.08
2019-01-24T22:52:06.429Z,79.83
2019-01-24T22:54:36.325Z,76.43
2019-01-24T22:57:06.333Z,73.23
2019-01-24T22:59:36.350Z,74.17
2019-01-24T23:02:23.501Z,74.59
2019-01-24T23:04:53.449Z,76.62
2019-01-24T23:07:23.618Z,76.51
2019-01-24T23:09:53.681Z,77.49
2019-01-24T23:12:23.723Z,76.65
2019-01-24T23:14:53.637Z,77.39
2019-01-24T23:17:23.663Z,76.57
2019-01-24T23:19:53.498Z,77.23
2019-01-24T23:22:23.450Z,76.37
2019-01-24T23:24:53.415Z,76.39
2019-01-24T23:27:23.455Z,76.87
2019-01-24T23:29:53.363Z,75.48
2019-01-24T23:32:23.266Z,76.55
2019-01-24T23:34:53.147Z,74.44
2019-01-24T23:37:23.000Z,74.82
2019-01-24T23:39:53.599Z,75.99
2019-01-24T23:42:23.696Z,76.52
2019-01-24T23:44:53.844Z,76.96
2019-01-24T23:47:23.832Z,77.42
2019-01-24T23:49:53.809Z,76.88
2019-01-24T23:52:23.690Z,75.97
2019-01-24T23:54:53.646Z,76.12
2019-01-24T23:57:24.038Z,75.62
2019-01-24T23:59:54.114Z,73.73
